sensor_id;sensor_type;location;lat;lon;timestamp;temperature;humidity
506;DHT22;551;48.524;9.056;2022-11-20T00:00:56;6.50;1.00
506;DHT22;551;48.524;9.056;2022-11-20T00:03:22;6.40;1.00
506;DHT22;551;48.524;9.056;2022-11-20T00:05:48;6.40;1.00
506;DHT22;551;48.524;9.056;2022-11-20T00:08:13;6.30;1.00
506;DHT22;551;48.524;9.056;2022-11-20T00:10:39;6.30;1.00
506;DHT22;551;48.524;9.056;2022-11-20T00:13:06;6.20;1.00
506;DHT22;551;48.524;9.056;2022-11-20T00:15:32;6.20;1.00
506;DHT22;551;48.524;9.056;2022-11-20T00:17:57;6.10;1.00
506;DHT22;551;48.524;9.056;2022-11-20T00:20:23;6.10;1.00
506;DHT22;551;48.524;9.056;2022-11-20T00:22:49;6.00;1.00
506;DHT22;551;48.524;9.056;2022-11-20T00:25:15;6.00;1.00
506;DHT22;551;48.524;9.056;2022-11-20T00:27:40;5.90;1.00
506;DHT22;551;48.524;9.056;2022-11-20T00:30:06;5.80;1.00
506;DHT22;551;48.524;9.056;2022-11-20T00:32:32;5.80;1.00
506;DHT22;551;48.524;9.056;2022-11-20T00:34:57;5.80;1.00
506;DHT22;551;48.524;9.056;2022-11-20T00:37:23;5.80;1.00
506;DHT22;551;48.524;9.056;2022-11-20T00:39:48;5.70;1.00
506;DHT22;551;48.524;9.056;2022-11-20T00:42:14;5.70;1.00
506;DHT22;551;48.524;9.056;2022-11-20T00:44:39;5.70;1.00
506;DHT22;551;48.524;9.056;2022-11-20T00:47:05;5.70;1.00
506;DHT22;551;48.524;9.056;2022-11-20T00:49:30;5.60;1.00
506;DHT22;551;48.524;9.056;2022-11-20T00:51:56;5.60;1.00
506;DHT22;551;48.524;9.056;2022-11-20T00:54:21;5.60;1.00
506;DHT22;551;48.524;9.056;2022-11-20T00:56:47;5.60;1.00
506;DHT22;551;48.524;9.056;2022-11-20T00:59:12;5.50;1.00
506;DHT22;551;48.524;9.056;2022-11-20T01:01:38;5.50;1.00
506;DHT22;551;48.524;9.056;2022-11-20T01:04:04;5.50;1.00
506;DHT22;551;48.524;9.056;2022-11-20T01:06:32;5.50;1.00
506;DHT22;551;48.524;9.056;2022-11-20T01:09:01;5.50;1.00
506;DHT22;551;48.524;9.056;2022-11-20T01:11:29;5.40;1.00
506;DHT22;551;48.524;9.056;2022-11-20T01:13:56;5.40;1.00
506;DHT22;551;48.524;9.056;2022-11-20T01:16:43;5.40;1.00
506;DHT22;551;48.524;9.056;2022-11-20T01:19:14;5.30;1.00
506;DHT22;551;48.524;9.056;2022-11-20T01:21:42;5.30;1.00
506;DHT22;551;48.524;9.056;2022-11-20T01:24:11;5.20;1.00
506;DHT22;551;48.524;9.056;2022-11-20T01:26:39;5.30;1.00
506;DHT22;551;48.524;9.056;2022-11-20T01:29:05;5.30;1.00
506;DHT22;551;48.524;9.056;2022-11-20T01:31:32;5.30;1.00
506;DHT22;551;48.524;9.056;2022-11-20T01:34:03;5.20;1.00
506;DHT22;551;48.524;9.056;2022-11-20T01:36:31;5.20;1.00
506;DHT22;551;48.524;9.056;2022-11-20T01:38:59;5.20;1.00
506;DHT22;551;48.524;9.056;2022-11-20T01:41:27;5.10;1.00
506;DHT22;551;48.524;9.056;2022-11-20T01:44:14;5.10;1.00
506;DHT22;551;48.524;9.056;2022-11-20T01:46:45;5.10;1.00
506;DHT22;551;48.524;9.056;2022-11-20T01:49:19;5.10;1.00
506;DHT22;551;48.524;9.056;2022-11-20T01:51:51;5.00;1.00
506;DHT22;551;48.524;9.056;2022-11-20T01:54:30;4.90;1.00
506;DHT22;551;48.524;9.056;2022-11-20T01:56:59;4.90;1.00
506;DHT22;551;48.524;9.056;2022-11-20T01:59:26;4.90;1.00
506;DHT22;551;48.524;9.056;2022-11-20T02:01:53;4.90;1.00
506;DHT22;551;48.524;9.056;2022-11-20T02:04:20;4.80;1.00
506;DHT22;551;48.524;9.056;2022-11-20T02:06:48;4.80;1.00
506;DHT22;551;48.524;9.056;2022-11-20T02:09:15;4.70;1.00
506;DHT22;551;48.524;9.056;2022-11-20T02:11:41;4.80;1.00
506;DHT22;551;48.524;9.056;2022-11-20T02:14:07;4.80;1.00
506;DHT22;551;48.524;9.056;2022-11-20T02:16:37;4.90;1.00
506;DHT22;551;48.524;9.056;2022-11-20T02:19:06;5.00;1.00
506;DHT22;551;48.524;9.056;2022-11-20T02:24:12;5.20;1.00
506;DHT22;551;48.524;9.056;2022-11-20T02:27:03;5.30;1.00
506;DHT22;551;48.524;9.056;2022-11-20T02:29:35;5.30;1.00
506;DHT22;551;48.524;9.056;2022-11-20T02:32:02;5.30;1.00
506;DHT22;551;48.524;9.056;2022-11-20T02:34:28;5.40;1.00
506;DHT22;551;48.524;9.056;2022-11-20T02:36:55;5.40;1.00
506;DHT22;551;48.524;9.056;2022-11-20T02:39:24;5.40;1.00
506;DHT22;551;48.524;9.056;2022-11-20T02:41:52;5.40;1.00
506;DHT22;551;48.524;9.056;2022-11-20T02:44:18;5.30;1.00
506;DHT22;551;48.524;9.056;2022-11-20T02:46:44;5.30;1.00
506;DHT22;551;48.524;9.056;2022-11-20T02:49:09;5.30;1.00
506;DHT22;551;48.524;9.056;2022-11-20T02:51:35;5.30;1.00
506;DHT22;551;48.524;9.056;2022-11-20T02:54:00;5.30;1.00
506;DHT22;551;48.524;9.056;2022-11-20T02:56:26;5.30;1.00
506;DHT22;551;48.524;9.056;2022-11-20T02:58:52;5.20;1.00
506;DHT22;551;48.524;9.056;2022-11-20T03:01:17;5.20;1.00
506;DHT22;551;48.524;9.056;2022-11-20T03:03:43;5.10;1.00
506;DHT22;551;48.524;9.056;2022-11-20T03:06:08;5.00;1.00
506;DHT22;551;48.524;9.056;2022-11-20T03:08:34;5.00;1.00
506;DHT22;551;48.524;9.056;2022-11-20T03:11:05;4.90;1.00
506;DHT22;551;48.524;9.056;2022-11-20T03:13:31;4.90;1.00
506;DHT22;551;48.524;9.056;2022-11-20T03:15:57;5.00;1.00
506;DHT22;551;48.524;9.056;2022-11-20T03:18:22;5.00;1.00
506;DHT22;551;48.524;9.056;2022-11-20T03:20:48;5.10;1.00
506;DHT22;551;48.524;9.056;2022-11-20T03:23:13;5.20;1.00
506;DHT22;551;48.524;9.056;2022-11-20T03:25:39;5.20;1.00
506;DHT22;551;48.524;9.056;2022-11-20T03:28:04;5.20;1.00
506;DHT22;551;48.524;9.056;2022-11-20T03:30:30;5.20;1.00
506;DHT22;551;48.524;9.056;2022-11-20T03:32:55;5.30;1.00
506;DHT22;551;48.524;9.056;2022-11-20T03:35:21;5.30;1.00
506;DHT22;551;48.524;9.056;2022-11-20T03:37:46;5.40;1.00
506;DHT22;551;48.524;9.056;2022-11-20T03:40:12;5.40;1.00
506;DHT22;551;48.524;9.056;2022-11-20T03:42:38;5.50;1.00
506;DHT22;551;48.524;9.056;2022-11-20T03:45:14;5.60;1.00
506;DHT22;551;48.524;9.056;2022-11-20T03:47:39;5.60;1.00
506;DHT22;551;48.524;9.056;2022-11-20T03:50:05;5.60;1.00
506;DHT22;551;48.524;9.056;2022-11-20T03:52:31;5.70;1.00
506;DHT22;551;48.524;9.056;2022-11-20T03:54:56;5.70;1.00
506;DHT22;551;48.524;9.056;2022-11-20T03:57:22;5.70;1.00
506;DHT22;551;48.524;9.056;2022-11-20T03:59:47;5.70;1.00
506;DHT22;551;48.524;9.056;2022-11-20T04:02:13;5.70;1.00
506;DHT22;551;48.524;9.056;2022-11-20T04:04:38;5.70;1.00
506;DHT22;551;48.524;9.056;2022-11-20T04:07:04;5.80;1.00
506;DHT22;551;48.524;9.056;2022-11-20T04:09:29;5.80;1.00
506;DHT22;551;48.524;9.056;2022-11-20T04:11:55;5.90;1.00
506;DHT22;551;48.524;9.056;2022-11-20T04:14:20;6.00;1.00
506;DHT22;551;48.524;9.056;2022-11-20T04:16:46;6.00;1.00
506;DHT22;551;48.524;9.056;2022-11-20T04:19:14;6.00;1.00
506;DHT22;551;48.524;9.056;2022-11-20T04:21:40;6.10;1.00
506;DHT22;551;48.524;9.056;2022-11-20T04:24:06;6.20;1.00
506;DHT22;551;48.524;9.056;2022-11-20T04:26:32;6.20;1.00
506;DHT22;551;48.524;9.056;2022-11-20T04:28:58;6.30;1.00
506;DHT22;551;48.524;9.056;2022-11-20T04:31:26;6.30;1.00
506;DHT22;551;48.524;9.056;2022-11-20T04:33:52;6.40;1.00
506;DHT22;551;48.524;9.056;2022-11-20T04:36:23;6.50;1.00
506;DHT22;551;48.524;9.056;2022-11-20T04:38:56;6.50;1.00
506;DHT22;551;48.524;9.056;2022-11-20T04:41:24;6.50;1.00
506;DHT22;551;48.524;9.056;2022-11-20T04:43:55;6.50;1.00
506;DHT22;551;48.524;9.056;2022-11-20T04:46:25;6.60;1.00
506;DHT22;551;48.524;9.056;2022-11-20T04:48:52;6.70;1.00
506;DHT22;551;48.524;9.056;2022-11-20T04:51:17;6.80;1.00
506;DHT22;551;48.524;9.056;2022-11-20T04:53:43;6.90;1.00
506;DHT22;551;48.524;9.056;2022-11-20T04:56:11;6.90;1.00
506;DHT22;551;48.524;9.056;2022-11-20T04:58:37;7.00;1.00
506;DHT22;551;48.524;9.056;2022-11-20T05:01:11;7.10;1.00
506;DHT22;551;48.524;9.056;2022-11-20T05:03:38;7.10;1.00
506;DHT22;551;48.524;9.056;2022-11-20T05:06:05;7.10;1.00
506;DHT22;551;48.524;9.056;2022-11-20T05:08:32;7.20;1.00
506;DHT22;551;48.524;9.056;2022-11-20T05:11:13;7.10;1.00
506;DHT22;551;48.524;9.056;2022-11-20T05:13:39;7.20;1.00
506;DHT22;551;48.524;9.056;2022-11-20T05:16:07;7.20;1.00
506;DHT22;551;48.524;9.056;2022-11-20T05:18:33;7.20;1.00
506;DHT22;551;48.524;9.056;2022-11-20T05:20:59;7.10;1.00
506;DHT22;551;48.524;9.056;2022-11-20T05:23:25;7.00;1.00
506;DHT22;551;48.524;9.056;2022-11-20T05:25:55;7.10;1.00
506;DHT22;551;48.524;9.056;2022-11-20T05:28:21;7.10;1.00
506;DHT22;551;48.524;9.056;2022-11-20T05:30:48;7.10;1.00
506;DHT22;551;48.524;9.056;2022-11-20T05:33:13;7.10;1.00
506;DHT22;551;48.524;9.056;2022-11-20T05:35:39;7.10;1.00
506;DHT22;551;48.524;9.056;2022-11-20T05:38:04;7.10;1.00
506;DHT22;551;48.524;9.056;2022-11-20T05:40:30;7.10;1.00
506;DHT22;551;48.524;9.056;2022-11-20T05:42:55;7.10;1.00
506;DHT22;551;48.524;9.056;2022-11-20T05:45:21;7.20;1.00
506;DHT22;551;48.524;9.056;2022-11-20T05:47:46;7.20;1.00
506;DHT22;551;48.524;9.056;2022-11-20T05:50:12;7.10;1.00
506;DHT22;551;48.524;9.056;2022-11-20T05:52:38;7.10;1.00
506;DHT22;551;48.524;9.056;2022-11-20T05:55:04;7.20;1.00
506;DHT22;551;48.524;9.056;2022-11-20T05:57:30;7.10;1.00
506;DHT22;551;48.524;9.056;2022-11-20T05:59:56;7.10;1.00
506;DHT22;551;48.524;9.056;2022-11-20T06:02:21;7.10;1.00
506;DHT22;551;48.524;9.056;2022-11-20T06:04:47;7.00;1.00
506;DHT22;551;48.524;9.056;2022-11-20T06:07:12;7.00;1.00
506;DHT22;551;48.524;9.056;2022-11-20T06:09:38;7.00;1.00
506;DHT22;551;48.524;9.056;2022-11-20T06:12:04;7.00;1.00
506;DHT22;551;48.524;9.056;2022-11-20T06:14:29;7.00;1.00
506;DHT22;551;48.524;9.056;2022-11-20T06:16:55;7.00;1.00
506;DHT22;551;48.524;9.056;2022-11-20T06:19:20;7.10;1.00
506;DHT22;551;48.524;9.056;2022-11-20T06:21:48;7.00;1.00
506;DHT22;551;48.524;9.056;2022-11-20T06:24:14;7.10;1.00
506;DHT22;551;48.524;9.056;2022-11-20T06:26:39;7.10;1.00
506;DHT22;551;48.524;9.056;2022-11-20T06:29:05;7.10;1.00
506;DHT22;551;48.524;9.056;2022-11-20T06:31:30;7.10;1.00
506;DHT22;551;48.524;9.056;2022-11-20T06:34:00;7.00;1.00
506;DHT22;551;48.524;9.056;2022-11-20T06:36:25;7.10;1.00
506;DHT22;551;48.524;9.056;2022-11-20T06:38:51;7.00;1.00
506;DHT22;551;48.524;9.056;2022-11-20T06:41:21;7.00;1.00
506;DHT22;551;48.524;9.056;2022-11-20T06:43:47;7.00;1.00
506;DHT22;551;48.524;9.056;2022-11-20T06:46:14;7.00;1.00
506;DHT22;551;48.524;9.056;2022-11-20T06:48:42;6.90;1.00
506;DHT22;551;48.524;9.056;2022-11-20T06:51:09;6.90;1.00
506;DHT22;551;48.524;9.056;2022-11-20T06:53:35;6.90;1.00
506;DHT22;551;48.524;9.056;2022-11-20T06:56:01;6.90;1.00
506;DHT22;551;48.524;9.056;2022-11-20T06:58:28;6.90;1.00
506;DHT22;551;48.524;9.056;2022-11-20T07:01:05;7.00;1.00
506;DHT22;551;48.524;9.056;2022-11-20T07:03:31;6.90;1.00
506;DHT22;551;48.524;9.056;2022-11-20T07:05:57;7.00;1.00
506;DHT22;551;48.524;9.056;2022-11-20T07:08:24;7.00;1.00
506;DHT22;551;48.524;9.056;2022-11-20T07:10:50;7.10;1.00
506;DHT22;551;48.524;9.056;2022-11-20T07:13:15;7.00;1.00
506;DHT22;551;48.524;9.056;2022-11-20T07:15:41;7.00;1.00
506;DHT22;551;48.524;9.056;2022-11-20T07:18:06;7.00;1.00
506;DHT22;551;48.524;9.056;2022-11-20T07:20:32;7.10;1.00
506;DHT22;551;48.524;9.056;2022-11-20T07:22:57;7.00;1.00
506;DHT22;551;48.524;9.056;2022-11-20T07:25:24;7.10;1.00
506;DHT22;551;48.524;9.056;2022-11-20T07:27:50;7.10;1.00
506;DHT22;551;48.524;9.056;2022-11-20T07:30:16;7.20;1.00
506;DHT22;551;48.524;9.056;2022-11-20T07:32:42;7.20;1.00
506;DHT22;551;48.524;9.056;2022-11-20T07:35:08;7.30;1.00
506;DHT22;551;48.524;9.056;2022-11-20T07:37:36;7.30;1.00
506;DHT22;551;48.524;9.056;2022-11-20T07:40:02;7.20;1.00
506;DHT22;551;48.524;9.056;2022-11-20T07:42:28;7.20;1.00
506;DHT22;551;48.524;9.056;2022-11-20T07:44:54;7.30;1.00
506;DHT22;551;48.524;9.056;2022-11-20T07:47:19;7.50;1.00
506;DHT22;551;48.524;9.056;2022-11-20T07:49:45;7.50;1.00
506;DHT22;551;48.524;9.056;2022-11-20T07:52:10;7.50;1.00
506;DHT22;551;48.524;9.056;2022-11-20T07:54:36;7.50;1.00
506;DHT22;551;48.524;9.056;2022-11-20T07:57:01;7.60;1.00
506;DHT22;551;48.524;9.056;2022-11-20T07:59:28;7.80;1.00
506;DHT22;551;48.524;9.056;2022-11-20T08:01:54;8.00;1.00
506;DHT22;551;48.524;9.056;2022-11-20T08:04:19;8.10;1.00
506;DHT22;551;48.524;9.056;2022-11-20T08:06:45;8.20;1.00
506;DHT22;551;48.524;9.056;2022-11-20T08:09:10;8.10;1.00
506;DHT22;551;48.524;9.056;2022-11-20T08:11:36;8.10;1.00
506;DHT22;551;48.524;9.056;2022-11-20T08:14:20;8.10;1.00
506;DHT22;551;48.524;9.056;2022-11-20T08:16:48;8.00;1.00
506;DHT22;551;48.524;9.056;2022-11-20T08:19:16;8.00;1.00
506;DHT22;551;48.524;9.056;2022-11-20T08:21:42;7.80;1.00
506;DHT22;551;48.524;9.056;2022-11-20T08:24:08;8.00;1.00
506;DHT22;551;48.524;9.056;2022-11-20T08:26:35;8.00;1.00
506;DHT22;551;48.524;9.056;2022-11-20T08:29:02;8.10;1.00
506;DHT22;551;48.524;9.056;2022-11-20T08:31:28;8.00;1.00
506;DHT22;551;48.524;9.056;2022-11-20T08:33:54;8.10;1.00
506;DHT22;551;48.524;9.056;2022-11-20T08:36:20;8.10;1.00
506;DHT22;551;48.524;9.056;2022-11-20T08:38:50;8.20;1.00
506;DHT22;551;48.524;9.056;2022-11-20T08:41:16;8.20;1.00
506;DHT22;551;48.524;9.056;2022-11-20T08:43:58;8.40;1.00
506;DHT22;551;48.524;9.056;2022-11-20T08:46:25;8.40;1.00
506;DHT22;551;48.524;9.056;2022-11-20T08:48:51;8.50;1.00
506;DHT22;551;48.524;9.056;2022-11-20T08:51:18;8.60;1.00
506;DHT22;551;48.524;9.056;2022-11-20T08:53:44;8.50;1.00
506;DHT22;551;48.524;9.056;2022-11-20T08:56:09;8.60;1.00
506;DHT22;551;48.524;9.056;2022-11-20T08:58:35;8.60;1.00
506;DHT22;551;48.524;9.056;2022-11-20T09:01:01;8.60;1.00
506;DHT22;551;48.524;9.056;2022-11-20T09:03:28;8.50;1.00
506;DHT22;551;48.524;9.056;2022-11-20T09:05:58;8.50;1.00
506;DHT22;551;48.524;9.056;2022-11-20T09:08:24;8.40;1.00
506;DHT22;551;48.524;9.056;2022-11-20T09:10:54;8.50;1.00
506;DHT22;551;48.524;9.056;2022-11-20T09:13:21;8.50;1.00
506;DHT22;551;48.524;9.056;2022-11-20T09:15:52;8.60;1.00
506;DHT22;551;48.524;9.056;2022-11-20T09:18:17;8.50;1.00
506;DHT22;551;48.524;9.056;2022-11-20T09:20:43;8.60;1.00
506;DHT22;551;48.524;9.056;2022-11-20T09:23:09;8.50;1.00
506;DHT22;551;48.524;9.056;2022-11-20T09:25:34;8.60;1.00
506;DHT22;551;48.524;9.056;2022-11-20T09:28:00;8.60;1.00
506;DHT22;551;48.524;9.056;2022-11-20T09:30:26;8.50;1.00
506;DHT22;551;48.524;9.056;2022-11-20T09:32:52;8.40;1.00
506;DHT22;551;48.524;9.056;2022-11-20T09:35:18;8.50;1.00
506;DHT22;551;48.524;9.056;2022-11-20T09:37:44;8.50;1.00
506;DHT22;551;48.524;9.056;2022-11-20T09:40:30;8.60;1.00
506;DHT22;551;48.524;9.056;2022-11-20T09:43:10;8.70;1.00
506;DHT22;551;48.524;9.056;2022-11-20T09:45:54;8.70;1.00
506;DHT22;551;48.524;9.056;2022-11-20T09:51:30;8.60;1.00
506;DHT22;551;48.524;9.056;2022-11-20T09:56:33;8.70;1.00
506;DHT22;551;48.524;9.056;2022-11-20T09:59:03;8.70;1.00
506;DHT22;551;48.524;9.056;2022-11-20T10:01:32;8.70;1.00
506;DHT22;551;48.524;9.056;2022-11-20T10:04:19;8.70;1.00
506;DHT22;551;48.524;9.056;2022-11-20T10:06:56;8.70;1.00
506;DHT22;551;48.524;9.056;2022-11-20T10:09:32;8.70;1.00
506;DHT22;551;48.524;9.056;2022-11-20T10:12:46;8.60;1.00
506;DHT22;551;48.524;9.056;2022-11-20T10:20:43;8.60;1.00
506;DHT22;551;48.524;9.056;2022-11-20T10:26:06;8.70;1.00
506;DHT22;551;48.524;9.056;2022-11-20T10:31:14;8.80;1.00
506;DHT22;551;48.524;9.056;2022-11-20T10:33:43;8.80;1.00
506;DHT22;551;48.524;9.056;2022-11-20T10:36:21;8.80;1.00
506;DHT22;551;48.524;9.056;2022-11-20T10:38:56;9.00;1.00
506;DHT22;551;48.524;9.056;2022-11-20T10:41:32;8.90;1.00
506;DHT22;551;48.524;9.056;2022-11-20T10:46:54;9.00;1.00
506;DHT22;551;48.524;9.056;2022-11-20T10:49:20;9.00;1.00
506;DHT22;551;48.524;9.056;2022-11-20T10:56:46;9.10;1.00
506;DHT22;551;48.524;9.056;2022-11-20T11:02:22;9.10;1.00
506;DHT22;551;48.524;9.056;2022-11-20T11:04:53;9.10;1.00
506;DHT22;551;48.524;9.056;2022-11-20T11:07:32;9.20;1.00
506;DHT22;551;48.524;9.056;2022-11-20T11:10:00;9.30;1.00
506;DHT22;551;48.524;9.056;2022-11-20T11:12:27;9.30;1.00
506;DHT22;551;48.524;9.056;2022-11-20T11:14:55;9.40;1.00
506;DHT22;551;48.524;9.056;2022-11-20T11:17:29;9.70;1.00
506;DHT22;551;48.524;9.056;2022-11-20T11:20:06;9.80;1.00
506;DHT22;551;48.524;9.056;2022-11-20T11:22:34;10.00;1.00
506;DHT22;551;48.524;9.056;2022-11-20T11:25:00;10.20;1.00
506;DHT22;551;48.524;9.056;2022-11-20T11:27:26;10.30;1.00
506;DHT22;551;48.524;9.056;2022-11-20T11:30:12;11.00;1.00
506;DHT22;551;48.524;9.056;2022-11-20T11:32:39;11.60;1.00
506;DHT22;551;48.524;9.056;2022-11-20T11:35:06;12.60;1.00
506;DHT22;551;48.524;9.056;2022-11-20T11:37:38;13.70;1.00
506;DHT22;551;48.524;9.056;2022-11-20T11:40:05;14.00;1.00
506;DHT22;551;48.524;9.056;2022-11-20T11:42:32;13.90;1.00
506;DHT22;551;48.524;9.056;2022-11-20T11:44:59;13.80;1.00
506;DHT22;551;48.524;9.056;2022-11-20T12:01:24;11.40;1.00
506;DHT22;551;48.524;9.056;2022-11-20T12:03:59;11.10;1.00
506;DHT22;551;48.524;9.056;2022-11-20T12:06:27;10.90;1.00
506;DHT22;551;48.524;9.056;2022-11-20T12:08:59;10.40;1.00
506;DHT22;551;48.524;9.056;2022-11-20T12:14:09;10.50;1.00
506;DHT22;551;48.524;9.056;2022-11-20T12:16:38;10.50;1.00
506;DHT22;551;48.524;9.056;2022-11-20T12:19:10;10.70;1.00
506;DHT22;551;48.524;9.056;2022-11-20T12:30:19;10.90;1.00
506;DHT22;551;48.524;9.056;2022-11-20T12:38:42;11.30;1.00
506;DHT22;551;48.524;9.056;2022-11-20T12:49:56;13.10;1.00
506;DHT22;551;48.524;9.056;2022-11-20T12:55:33;14.50;1.00
506;DHT22;551;48.524;9.056;2022-11-20T12:58:17;15.20;1.00
506;DHT22;551;48.524;9.056;2022-11-20T13:00:58;15.30;1.00
506;DHT22;551;48.524;9.056;2022-11-20T13:03:37;14.40;1.00
506;DHT22;551;48.524;9.056;2022-11-20T13:06:14;13.50;1.00
506;DHT22;551;48.524;9.056;2022-11-20T13:08:53;12.70;1.00
506;DHT22;551;48.524;9.056;2022-11-20T13:11:34;12.20;1.00
506;DHT22;551;48.524;9.056;2022-11-20T13:19:18;11.10;1.00
506;DHT22;551;48.524;9.056;2022-11-20T13:21:46;10.70;1.00
506;DHT22;551;48.524;9.056;2022-11-20T13:29:32;10.20;1.00
506;DHT22;551;48.524;9.056;2022-11-20T13:32:18;9.90;1.00
506;DHT22;551;48.524;9.056;2022-11-20T13:34:56;9.70;1.00
506;DHT22;551;48.524;9.056;2022-11-20T13:37:29;9.60;1.00
506;DHT22;551;48.524;9.056;2022-11-20T13:45:31;11.60;1.00
506;DHT22;551;48.524;9.056;2022-11-20T13:47:59;11.80;1.00
506;DHT22;551;48.524;9.056;2022-11-20T13:56:15;10.90;1.00
506;DHT22;551;48.524;9.056;2022-11-20T14:01:44;10.60;1.00
506;DHT22;551;48.524;9.056;2022-11-20T14:04:15;10.30;1.00
506;DHT22;551;48.524;9.056;2022-11-20T14:06:45;10.30;1.00
506;DHT22;551;48.524;9.056;2022-11-20T14:09:23;10.20;1.00
506;DHT22;551;48.524;9.056;2022-11-20T14:11:49;10.00;1.00
506;DHT22;551;48.524;9.056;2022-11-20T14:14:17;9.80;1.00
506;DHT22;551;48.524;9.056;2022-11-20T14:16:44;9.80;1.00
506;DHT22;551;48.524;9.056;2022-11-20T14:22:30;9.70;1.00
506;DHT22;551;48.524;9.056;2022-11-20T14:24:30;9.70;1.00
506;DHT22;551;48.524;9.056;2022-11-20T14:26:56;9.80;1.00
506;DHT22;551;48.524;9.056;2022-11-20T14:29:26;9.70;1.00
506;DHT22;551;48.524;9.056;2022-11-20T14:31:54;9.60;1.00
506;DHT22;551;48.524;9.056;2022-11-20T14:34:30;9.50;1.00
506;DHT22;551;48.524;9.056;2022-11-20T14:36:58;9.50;1.00
506;DHT22;551;48.524;9.056;2022-11-20T14:39:35;9.50;1.00
506;DHT22;551;48.524;9.056;2022-11-20T14:42:18;9.60;1.00
506;DHT22;551;48.524;9.056;2022-11-20T14:44:44;9.50;1.00
506;DHT22;551;48.524;9.056;2022-11-20T14:47:13;9.40;1.00
506;DHT22;551;48.524;9.056;2022-11-20T14:49:39;9.40;1.00
506;DHT22;551;48.524;9.056;2022-11-20T14:52:18;9.40;1.00
506;DHT22;551;48.524;9.056;2022-11-20T14:54:46;9.30;1.00
506;DHT22;551;48.524;9.056;2022-11-20T14:59:49;9.40;1.00
506;DHT22;551;48.524;9.056;2022-11-20T15:02:15;9.40;1.00
506;DHT22;551;48.524;9.056;2022-11-20T15:04:48;9.40;1.00
506;DHT22;551;48.524;9.056;2022-11-20T15:07:25;9.40;1.00
506;DHT22;551;48.524;9.056;2022-11-20T15:10:08;9.30;1.00
506;DHT22;551;48.524;9.056;2022-11-20T15:12:39;9.40;1.00
506;DHT22;551;48.524;9.056;2022-11-20T15:15:06;9.30;1.00
506;DHT22;551;48.524;9.056;2022-11-20T15:17:37;9.20;1.00
506;DHT22;551;48.524;9.056;2022-11-20T15:20:08;9.10;1.00
506;DHT22;551;48.524;9.056;2022-11-20T15:22:35;9.10;1.00
506;DHT22;551;48.524;9.056;2022-11-20T15:25:01;9.00;1.00
506;DHT22;551;48.524;9.056;2022-11-20T15:27:26;8.90;1.00
506;DHT22;551;48.524;9.056;2022-11-20T15:29:52;8.80;1.00
506;DHT22;551;48.524;9.056;2022-11-20T15:32:17;8.70;1.00
506;DHT22;551;48.524;9.056;2022-11-20T15:34:44;8.70;1.00
506;DHT22;551;48.524;9.056;2022-11-20T15:37:09;8.80;1.00
506;DHT22;551;48.524;9.056;2022-11-20T15:39:35;8.70;1.00
506;DHT22;551;48.524;9.056;2022-11-20T15:42:00;8.50;1.00
506;DHT22;551;48.524;9.056;2022-11-20T15:44:26;8.50;1.00
506;DHT22;551;48.524;9.056;2022-11-20T15:46:51;8.50;1.00
506;DHT22;551;48.524;9.056;2022-11-20T15:49:17;8.60;1.00
506;DHT22;551;48.524;9.056;2022-11-20T15:51:46;8.50;1.00
506;DHT22;551;48.524;9.056;2022-11-20T15:54:17;8.60;1.00
506;DHT22;551;48.524;9.056;2022-11-20T15:56:45;8.50;1.00
506;DHT22;551;48.524;9.056;2022-11-20T15:59:12;8.50;1.00
506;DHT22;551;48.524;9.056;2022-11-20T16:01:39;8.40;1.00
506;DHT22;551;48.524;9.056;2022-11-20T16:04:12;8.50;1.00
506;DHT22;551;48.524;9.056;2022-11-20T16:06:38;8.70;1.00
506;DHT22;551;48.524;9.056;2022-11-20T16:09:03;8.60;1.00
506;DHT22;551;48.524;9.056;2022-11-20T16:11:29;8.50;1.00
506;DHT22;551;48.524;9.056;2022-11-20T16:13:54;8.30;1.00
506;DHT22;551;48.524;9.056;2022-11-20T16:16:39;8.20;1.00
506;DHT22;551;48.524;9.056;2022-11-20T16:19:10;8.20;1.00
506;DHT22;551;48.524;9.056;2022-11-20T16:21:35;8.00;1.00
506;DHT22;551;48.524;9.056;2022-11-20T16:24:04;8.00;1.00
506;DHT22;551;48.524;9.056;2022-11-20T16:26:30;7.80;1.00
506;DHT22;551;48.524;9.056;2022-11-20T16:28:56;8.00;1.00
506;DHT22;551;48.524;9.056;2022-11-20T16:31:23;8.00;1.00
506;DHT22;551;48.524;9.056;2022-11-20T16:33:53;8.20;1.00
506;DHT22;551;48.524;9.056;2022-11-20T16:36:20;8.40;1.00
506;DHT22;551;48.524;9.056;2022-11-20T16:38:46;8.40;1.00
506;DHT22;551;48.524;9.056;2022-11-20T16:41:13;8.40;1.00
506;DHT22;551;48.524;9.056;2022-11-20T16:46:09;8.40;1.00
506;DHT22;551;48.524;9.056;2022-11-20T16:48:35;8.40;1.00
506;DHT22;551;48.524;9.056;2022-11-20T16:51:00;8.40;1.00
506;DHT22;551;48.524;9.056;2022-11-20T16:53:26;8.40;1.00
506;DHT22;551;48.524;9.056;2022-11-20T16:55:51;8.40;1.00
506;DHT22;551;48.524;9.056;2022-11-20T16:58:17;8.40;1.00
506;DHT22;551;48.524;9.056;2022-11-20T17:00:43;8.40;1.00
506;DHT22;551;48.524;9.056;2022-11-20T17:03:09;8.40;1.00
506;DHT22;551;48.524;9.056;2022-11-20T17:05:35;8.40;1.00
506;DHT22;551;48.524;9.056;2022-11-20T17:08:00;8.50;1.00
506;DHT22;551;48.524;9.056;2022-11-20T17:10:26;8.40;1.00
506;DHT22;551;48.524;9.056;2022-11-20T17:12:52;8.50;1.00
506;DHT22;551;48.524;9.056;2022-11-20T17:15:17;8.40;1.00
506;DHT22;551;48.524;9.056;2022-11-20T17:17:43;8.50;1.00
506;DHT22;551;48.524;9.056;2022-11-20T17:20:09;8.50;1.00
506;DHT22;551;48.524;9.056;2022-11-20T17:22:36;8.40;1.00
506;DHT22;551;48.524;9.056;2022-11-20T17:25:01;8.40;1.00
506;DHT22;551;48.524;9.056;2022-11-20T17:27:27;8.40;1.00
506;DHT22;551;48.524;9.056;2022-11-20T17:29:52;8.40;1.00
506;DHT22;551;48.524;9.056;2022-11-20T17:32:19;8.40;1.00
506;DHT22;551;48.524;9.056;2022-11-20T17:34:44;8.50;1.00
506;DHT22;551;48.524;9.056;2022-11-20T17:37:10;8.50;1.00
506;DHT22;551;48.524;9.056;2022-11-20T17:39:35;8.50;1.00
506;DHT22;551;48.524;9.056;2022-11-20T17:42:01;8.50;1.00
506;DHT22;551;48.524;9.056;2022-11-20T17:44:45;8.50;1.00
506;DHT22;551;48.524;9.056;2022-11-20T17:47:13;8.50;1.00
506;DHT22;551;48.524;9.056;2022-11-20T17:49:40;8.50;1.00
506;DHT22;551;48.524;9.056;2022-11-20T17:52:06;8.50;1.00
506;DHT22;551;48.524;9.056;2022-11-20T17:54:31;8.50;1.00
506;DHT22;551;48.524;9.056;2022-11-20T17:56:57;8.50;1.00
506;DHT22;551;48.524;9.056;2022-11-20T17:59:41;8.50;1.00
506;DHT22;551;48.524;9.056;2022-11-20T18:02:07;8.50;1.00
506;DHT22;551;48.524;9.056;2022-11-20T18:04:35;8.60;1.00
506;DHT22;551;48.524;9.056;2022-11-20T18:07:00;8.50;1.00
506;DHT22;551;48.524;9.056;2022-11-20T18:09:26;8.60;1.00
506;DHT22;551;48.524;9.056;2022-11-20T18:11:51;8.60;1.00
506;DHT22;551;48.524;9.056;2022-11-20T18:14:17;8.60;1.00
506;DHT22;551;48.524;9.056;2022-11-20T18:17:01;8.70;1.00
506;DHT22;551;48.524;9.056;2022-11-20T18:19:33;8.80;1.00
506;DHT22;551;48.524;9.056;2022-11-20T18:22:00;8.80;1.00
506;DHT22;551;48.524;9.056;2022-11-20T18:24:26;8.70;1.00
506;DHT22;551;48.524;9.056;2022-11-20T18:26:51;8.70;1.00
506;DHT22;551;48.524;9.056;2022-11-20T18:29:17;8.70;1.00
506;DHT22;551;48.524;9.056;2022-11-20T18:31:42;8.60;1.00
506;DHT22;551;48.524;9.056;2022-11-20T18:34:08;8.60;1.00
506;DHT22;551;48.524;9.056;2022-11-20T18:36:36;8.70;1.00
506;DHT22;551;48.524;9.056;2022-11-20T18:39:02;8.60;1.00
506;DHT22;551;48.524;9.056;2022-11-20T18:41:29;8.70;1.00
506;DHT22;551;48.524;9.056;2022-11-20T18:44:21;8.70;1.00
506;DHT22;551;48.524;9.056;2022-11-20T18:47:07;8.70;1.00
506;DHT22;551;48.524;9.056;2022-11-20T18:49:32;8.70;1.00
506;DHT22;551;48.524;9.056;2022-11-20T18:51:58;8.70;1.00
506;DHT22;551;48.524;9.056;2022-11-20T18:54:23;8.70;1.00
506;DHT22;551;48.524;9.056;2022-11-20T18:56:49;8.70;1.00
506;DHT22;551;48.524;9.056;2022-11-20T18:59:16;8.60;1.00
506;DHT22;551;48.524;9.056;2022-11-20T19:01:42;8.60;1.00